Latest Coastal Weather Observations for Hay Point

IDQ60701

Issued at 10:02 am EST Wednesday 16 October 2019 (issued every 10 minutes, with the page automatically refreshed every 10 minutes)

About coastal observations | Map of coastal stations | Coastal observations for QLD | Marine services | Other Formats
Station Details ID: 033317 Name: HAY POINT Lat: -21.29 Lon: 149.30 Height: 7.0 m
Data from the previous 72 hours. | See also: Recent months for locations in Queensland
Date/Time
EST
Wind Sea
Height
m
Swell Vis
km
Cloud Weather Temp
°C
Press
hPa
Rain since
9am
mm
Dir  Spd
kts
Gust
kts
Height
m
Period
s
Dir
16/10:00am N 18 20 - - - - - - - - - -
16/09:30am N 17 19 - - - - - - - - - -
16/09:00am N 18 20 - - - - - - - - - -
16/08:30am N 18 21 - - - - - - - - - -
16/08:00am N 18 21 - - - - - - - - - -
16/07:30am NNW 10 13 - - - - - - - - - -
16/07:00am NW 9 13 - - - - - - - - - -
16/06:30am NW 11 14 - - - - - - - - - -
16/06:00am N 17 20 - - - - - - - - - -
16/05:30am N 17 21 - - - - - - - - - -
16/05:00am N 17 20 - - - - - - - - - -
16/04:30am N 17 20 - - - - - - - - - -
16/04:00am N 17 19 - - - - - - - - - -
16/03:30am N 15 17 - - - - - - - - - -
16/03:00am N 12 16 - - - - - - - - - -
16/02:30am NNW 15 18 - - - - - - - - - -
16/02:00am NNW 15 18 - - - - - - - - - -
16/01:30am NNW 19 23 - - - - - - - - - -
16/01:00am NNW 18 21 - - - - - - - - - -
16/12:30am N 19 23 - - - - - - - - - -
16/12:00am N 19 24 - - - - - - - - - -
 
Date/Time
EST
Wind Sea
Height
m
Swell Vis
km
Cloud Weather Temp
°C
Press
hPa
Rain since
9am
mm
Dir  Spd
kts
Gust
kts
Height
m
Period
s
Dir
15/11:30pm N 20 25 - - - - - - - - - -
15/11:00pm NNE 21 23 - - - - - - - - - -
15/10:30pm NNE 20 22 - - - - - - - - - -
15/10:00pm NE 18 20 - - - - - - - - - -
15/09:30pm NE 15 18 - - - - - - - - - -
15/09:00pm N 19 22 - - - - - - - - - -
15/08:30pm N 19 22 - - - - - - - - - -
15/08:00pm NNW 17 21 - - - - - - - - - -
15/07:30pm NNW 18 21 - - - - - - - - - -
15/07:00pm N 19 24 - - - - - - - - - -
15/06:30pm NNW 19 26 - - - - - - - - - -
15/06:00pm N 19 24 - - - - - - - - - -
15/05:30pm N 21 28 - - - - - - - - - -
15/05:00pm N 21 26 - - - - - - - - - -
15/04:30pm N 20 25 - - - - - - - - - -
15/04:00pm N 20 23 - - - - - - - - - -
15/03:30pm N 20 23 - - - - - - - - - -
15/03:00pm N 21 25 - - - - - - - - - -
15/02:30pm N 20 22 - - - - - - - - - -
15/02:00pm N 20 23 - - - - - - - - - -
15/01:30pm N 19 22 - - - - - - - - - -
15/01:00pm N 19 22 - - - - - - - - - -
15/12:30pm N 19 22 - - - - - - - - - -
15/12:00pm N 21 23 - - - - - - - - - -
15/11:30am N 20 23 - - - - - - - - - -
15/11:00am N 20 24 - - - - - - - - - -
15/10:30am N 20 24 - - - - - - - - - -
15/10:00am N 19 22 - - - - - - - - - -
15/09:30am N 17 21 - - - - - - - - - -
15/09:00am N 17 21 - - - - - - - - - -
15/08:30am NNW 15 18 - - - - - - - - - -
15/08:00am NNW 15 17 - - - - - - - - - -
15/07:30am NW 9 11 - - - - - - - - - -
15/07:00am NW 9 12 - - - - - - - - - -
15/06:30am WNW 9 12 - - - - - - - - - -
15/06:00am NNW 17 21 - - - - - - - - - -
15/05:30am NNW 16 19 - - - - - - - - - -
15/05:00am NNW 17 22 - - - - - - - - - -
15/04:30am NNW 18 22 - - - - - - - - - -
15/04:00am NNW 17 20 - - - - - - - - - -
15/03:30am NNW 19 23 - - - - - - - - - -
15/03:00am N 19 23 - - - - - - - - - -
15/02:30am N 19 22 - - - - - - - - - -
15/02:00am N 19 23 - - - - - - - - - -
15/01:30am N 19 22 - - - - - - - - - -
15/01:00am N 17 21 - - - - - - - - - -
15/12:30am N 18 21 - - - - - - - - - -
15/12:00am N 18 21 - - - - - - - - - -
 
Date/Time
EST
Wind Sea
Height
m
Swell Vis
km
Cloud Weather Temp
°C
Press
hPa
Rain since
9am
mm
Dir  Spd
kts
Gust
kts
Height
m
Period
s
Dir
14/11:30pm N 17 19 - - - - - - - - - -
14/11:00pm NNE 17 18 - - - - - - - - - -
14/10:30pm NNE 15 17 - - - - - - - - - -
14/10:00pm N 14 17 - - - - - - - - - -
14/09:30pm NNE 15 17 - - - - - - - - - -
14/09:00pm N 15 17 - - - - - - - - - -
14/08:30pm NNE 15 17 - - - - - - - - - -
14/08:00pm NNE 16 18 - - - - - - - - - -
14/07:30pm NNE 14 16 - - - - - - - - - -
14/07:00pm NNE 14 16 - - - - - - - - - -
14/06:30pm NNE 14 16 - - - - - - - - - -
14/06:00pm N 14 16 - - - - - - - - - -
14/05:30pm N 14 16 - - - - - - - - - -
14/05:00pm NNE 15 17 - - - - - - - - - -
14/04:30pm NNE 17 19 - - - - - - - - - -
14/04:00pm NNE 16 18 - - - - - - - - - -
14/03:30pm NNE 16 18 - - - - - - - - - -
14/03:00pm NNE 15 17 - - - - - - - - - -
14/02:30pm NNE 16 19 - - - - - - - - - -
14/02:00pm NE 16 18 - - - - - - - - - -
14/01:30pm NNE 16 18 - - - - - - - - - -
14/01:00pm NE 15 17 - - - - - - - - - -
14/12:30pm NE 14 17 - - - - - - - - - -
14/12:00pm NE 13 16 - - - - - - - - - -
14/11:30am NE 13 15 - - - - - - - - - -
14/11:00am NE 12 15 - - - - - - - - - -
14/10:30am NE 12 14 - - - - - - - - - -
14/10:00am NE 10 12 - - - - - - - - - -
14/09:30am NE 9 10 - - - - - - - - - -
14/09:00am NNE 9 11 - - - - - - - - - -
14/08:30am NNE 9 10 - - - - - - - - - -
14/08:00am NNE 10 12 - - - - - - - - - -
14/07:30am NNE 11 13 - - - - - - - - - -
14/07:00am NNE 10 12 - - - - - - - - - -
14/06:30am NNE 9 11 - - - - - - - - - -
14/06:00am NNE 11 14 - - - - - - - - - -
14/05:30am NNE 13 15 - - - - - - - - - -
14/05:00am NE 13 15 - - - - - - - - - -
14/04:30am NE 14 15 - - - - - - - - - -
14/04:00am NE 13 16 - - - - - - - - - -
14/03:30am NE 14 16 - - - - - - - - - -
14/03:00am NNE 13 15 - - - - - - - - - -
14/02:30am NE 13 15 - - - - - - - - - -
14/02:00am NNE 13 15 - - - - - - - - - -
14/01:30am NNE 13 15 - - - - - - - - - -
14/01:00am NNE 13 15 - - - - - - - - - -
14/12:30am NNE 14 15 - - - - - - - - - -
14/12:00am NNE 13 15 - - - - - - - - - -
 
Date/Time
EST
Wind Sea
Height
m
Swell Vis
km
Cloud Weather Temp
°C
Press
hPa
Rain since
9am
mm
Dir  Spd
kts
Gust
kts
Height
m
Period
s
Dir
13/11:30pm NNE 11 14 - - - - - - - - - -
13/11:00pm NNE 10 11 - - - - - - - - - -
13/10:30pm NNE 9 12 - - - - - - - - - -
13/10:00pm NE 9 10 - - - - - - - - - -
13/09:30pm NNE 9 11 - - - - - - - - - -
13/09:00pm NNE 8 9 - - - - - - - - - -
13/08:30pm NNE 9 10 - - - - - - - - - -
13/08:00pm N 10 12 - - - - - - - - - -
13/07:30pm N 11 13 - - - - - - - - - -
13/07:00pm NNE 11 13 - - - - - - - - - -
13/06:30pm NNE 11 13 - - - - - - - - - -
13/06:00pm NE 10 11 - - - - - - - - - -
13/05:30pm NE 9 11 - - - - - - - - - -
13/05:00pm NE 10 12 - - - - - - - - - -
13/04:30pm NE 11 13 - - - - - - - - - -
13/04:00pm NE 12 13 - - - - - - - - - -
13/03:30pm NE 12 14 - - - - - - - - - -
13/03:00pm NE 12 14 - - - - - - - - - -
13/02:30pm NE 13 14 - - - - - - - - - -
13/02:00pm NE 12 14 - - - - - - - - - -
13/01:30pm NE 13 15 - - - - - - - - - -
13/01:00pm NE 11 14 - - - - - - - - - -
13/12:30pm NE 10 12 - - - - - - - - - -
13/12:00pm NE 8 9 - - - - - - - - - -
13/11:30am NE 8 9 - - - - - - - - - -
13/11:00am NE 8 9 - - - - - - - - - -
13/10:30am NE 7 8 - - - - - - - - - -

Other formats

Comma delimited format used in spreadsheet applications
http://www.bom.gov.au/fwo/IDQ60701/IDQ60701.99367.axf

JavaScript Object Notation format (JSON) in row-major order
http://www.bom.gov.au/fwo/IDQ60701/IDQ60701.99367.json

Data quality

Most of these data are generated automatically and are frequently updated. Quality checks on data are not normally performed. It is possible for incorrect values to appear. Refer to information at About Latest Weather Observations and please check the disclaimer before using these data.